sensor_id;sensor_type;location;lat;lon;timestamp;pressure;altitude;pressure_sealevel;temperature;humidity
64679;BME280;51094;53.864;27.676;2023-04-03T00:01:00;99238.69;;;0.38;71.39
64679;BME280;51094;53.864;27.676;2023-04-03T00:03:27;99300.63;;;0.77;71.54
64679;BME280;51094;53.864;27.676;2023-04-03T00:05:54;99294.50;;;0.83;71.84
64679;BME280;51094;53.864;27.676;2023-04-03T00:08:21;99285.63;;;0.93;71.40
64679;BME280;51094;53.864;27.676;2023-04-03T00:10:48;99251.06;;;0.80;71.30
64679;BME280;51094;53.864;27.676;2023-04-03T00:13:15;99267.00;;;0.88;70.72
64679;BME280;51094;53.864;27.676;2023-04-03T00:15:42;99295.56;;;1.02;70.58
64679;BME280;51094;53.864;27.676;2023-04-03T00:18:09;99192.63;;;0.40;71.30
64679;BME280;51094;53.864;27.676;2023-04-03T00:20:36;99314.66;;;1.20;71.08
64679;BME280;51094;53.864;27.676;2023-04-03T00:23:03;99284.69;;;0.95;70.81
64679;BME280;51094;53.864;27.676;2023-04-03T00:25:30;99251.75;;;0.57;71.62
64679;BME280;51094;53.864;27.676;2023-04-03T00:27:57;99317.28;;;0.90;72.01
64679;BME280;51094;53.864;27.676;2023-04-03T00:30:25;99323.19;;;0.92;72.30
64679;BME280;51094;53.864;27.676;2023-04-03T00:32:53;99214.59;;;0.17;71.50
64679;BME280;51094;53.864;27.676;2023-04-03T00:35:21;99319.16;;;0.85;72.08
64679;BME280;51094;53.864;27.676;2023-04-03T00:37:51;99320.66;;;0.91;72.14
64679;BME280;51094;53.864;27.676;2023-04-03T00:40:24;99313.00;;;0.91;72.13
64679;BME280;51094;53.864;27.676;2023-04-03T00:42:56;99313.72;;;0.94;72.05
64679;BME280;51094;53.864;27.676;2023-04-03T00:45:29;99301.34;;;0.82;71.42
64679;BME280;51094;53.864;27.676;2023-04-03T00:47:56;99297.72;;;0.88;71.26
64679;BME280;51094;53.864;27.676;2023-04-03T00:50:28;99327.94;;;1.05;71.71
64679;BME280;51094;53.864;27.676;2023-04-03T00:52:57;99321.94;;;1.06;71.15
64679;BME280;51094;53.864;27.676;2023-04-03T00:55:25;99318.53;;;1.05;70.91
64679;BME280;51094;53.864;27.676;2023-04-03T00:57:54;99278.72;;;0.69;70.25
64679;BME280;51094;53.864;27.676;2023-04-03T01:00:23;99312.09;;;0.92;70.33
64679;BME280;51094;53.864;27.676;2023-04-03T01:02:51;99311.09;;;0.97;70.39
64679;BME280;51094;53.864;27.676;2023-04-03T01:05:20;99268.78;;;0.58;69.73
64679;BME280;51094;53.864;27.676;2023-04-03T01:07:49;99317.38;;;0.87;70.13
64679;BME280;51094;53.864;27.676;2023-04-03T01:10:19;99327.56;;;0.89;70.65
64679;BME280;51094;53.864;27.676;2023-04-03T01:12:49;99348.78;;;0.92;70.29
64679;BME280;51094;53.864;27.676;2023-04-03T01:15:19;99333.34;;;0.95;70.42
64679;BME280;51094;53.864;27.676;2023-04-03T01:17:49;99325.00;;;0.61;69.72
64679;BME280;51094;53.864;27.676;2023-04-03T01:25:57;99296.97;;;0.56;70.74
64679;BME280;51094;53.864;27.676;2023-04-03T01:28:30;99342.78;;;0.93;70.35
64679;BME280;51094;53.864;27.676;2023-04-03T01:33:45;99351.81;;;1.05;70.75
64679;BME280;51094;53.864;27.676;2023-04-03T01:36:21;99292.81;;;0.82;70.31
64679;BME280;51094;53.864;27.676;2023-04-03T01:38:50;99279.97;;;0.83;70.34
64679;BME280;51094;53.864;27.676;2023-04-03T01:41:17;99241.75;;;0.49;69.39
64679;BME280;51094;53.864;27.676;2023-04-03T01:43:47;99190.78;;;0.15;69.96
64679;BME280;51094;53.864;27.676;2023-04-03T01:46:15;99334.59;;;1.10;69.82
64679;BME280;51094;53.864;27.676;2023-04-03T01:48:42;99261.94;;;0.58;69.07
64679;BME280;51094;53.864;27.676;2023-04-03T01:51:09;99177.22;;;-0.16;69.43
64679;BME280;51094;53.864;27.676;2023-04-03T01:53:36;99338.88;;;0.82;69.99
64679;BME280;51094;53.864;27.676;2023-04-03T01:56:03;99286.69;;;0.30;70.33
64679;BME280;51094;53.864;27.676;2023-04-03T01:58:31;99253.78;;;0.18;70.04
64679;BME280;51094;53.864;27.676;2023-04-03T02:00:58;99250.88;;;0.30;70.34
64679;BME280;51094;53.864;27.676;2023-04-03T02:03:25;99321.38;;;0.68;70.15
64679;BME280;51094;53.864;27.676;2023-04-03T02:05:52;99312.72;;;0.72;70.24
64679;BME280;51094;53.864;27.676;2023-04-03T02:08:19;99345.38;;;0.92;70.59
64679;BME280;51094;53.864;27.676;2023-04-03T02:10:48;99346.88;;;0.99;70.30
64679;BME280;51094;53.864;27.676;2023-04-03T02:13:16;99311.53;;;0.84;69.94
64679;BME280;51094;53.864;27.676;2023-04-03T02:15:43;99349.63;;;0.93;70.38
64679;BME280;51094;53.864;27.676;2023-04-03T02:18:13;99342.03;;;0.90;69.97
64679;BME280;51094;53.864;27.676;2023-04-03T02:20:40;99331.56;;;0.70;70.53
64679;BME280;51094;53.864;27.676;2023-04-03T02:23:07;99271.66;;;0.47;70.09
64679;BME280;51094;53.864;27.676;2023-04-03T02:25:33;99272.41;;;0.51;69.98
64679;BME280;51094;53.864;27.676;2023-04-03T02:28:04;99351.22;;;0.97;69.96
64679;BME280;51094;53.864;27.676;2023-04-03T02:30:30;99248.50;;;0.24;69.00
64679;BME280;51094;53.864;27.676;2023-04-03T02:32:57;99327.19;;;0.44;69.32
64679;BME280;51094;53.864;27.676;2023-04-03T02:35:25;99309.16;;;0.48;70.15
64679;BME280;51094;53.864;27.676;2023-04-03T02:37:54;99254.13;;;0.06;69.67
64679;BME280;51094;53.864;27.676;2023-04-03T02:40:22;99351.91;;;0.74;69.78
64679;BME280;51094;53.864;27.676;2023-04-03T02:42:49;99361.31;;;0.74;68.94
64679;BME280;51094;53.864;27.676;2023-04-03T02:45:18;99366.34;;;0.77;69.77
64679;BME280;51094;53.864;27.676;2023-04-03T02:47:44;99336.13;;;0.60;69.73
64679;BME280;51094;53.864;27.676;2023-04-03T02:50:11;99326.09;;;0.52;69.51
64679;BME280;51094;53.864;27.676;2023-04-03T02:52:38;99341.06;;;0.66;69.45
64679;BME280;51094;53.864;27.676;2023-04-03T02:55:06;99383.28;;;0.81;69.01
64679;BME280;51094;53.864;27.676;2023-04-03T02:57:33;99258.22;;;0.11;67.92
64679;BME280;51094;53.864;27.676;2023-04-03T02:59:59;99282.03;;;0.13;68.30
64679;BME280;51094;53.864;27.676;2023-04-03T03:02:26;99355.84;;;0.56;69.12
64679;BME280;51094;53.864;27.676;2023-04-03T03:04:53;99308.44;;;0.14;68.73
64679;BME280;51094;53.864;27.676;2023-04-03T03:07:20;99260.69;;;-0.15;69.28
64679;BME280;51094;53.864;27.676;2023-04-03T03:09:47;99214.38;;;-0.36;69.40
64679;BME280;51094;53.864;27.676;2023-04-03T03:12:13;99366.09;;;0.55;68.52
64679;BME280;51094;53.864;27.676;2023-04-03T03:14:41;99358.66;;;0.47;68.82
64679;BME280;51094;53.864;27.676;2023-04-03T03:17:09;99336.13;;;0.30;68.78
64679;BME280;51094;53.864;27.676;2023-04-03T03:19:36;99362.25;;;0.42;68.88
64679;BME280;51094;53.864;27.676;2023-04-03T03:22:02;99300.97;;;0.06;68.66
64679;BME280;51094;53.864;27.676;2023-04-03T03:24:29;99255.56;;;-0.15;68.88
64679;BME280;51094;53.864;27.676;2023-04-03T03:26:56;99357.72;;;0.50;68.79
64679;BME280;51094;53.864;27.676;2023-04-03T03:29:23;99359.53;;;0.46;68.74
64679;BME280;51094;53.864;27.676;2023-04-03T03:31:49;99373.88;;;0.52;69.00
64679;BME280;51094;53.864;27.676;2023-04-03T03:34:17;99325.53;;;0.12;68.67
64679;BME280;51094;53.864;27.676;2023-04-03T03:36:43;99279.25;;;-0.09;68.86
64679;BME280;51094;53.864;27.676;2023-04-03T03:39:11;99370.38;;;0.54;68.37
64679;BME280;51094;53.864;27.676;2023-04-03T03:41:38;99390.03;;;0.54;68.23
64679;BME280;51094;53.864;27.676;2023-04-03T03:44:05;99376.47;;;0.50;68.56
64679;BME280;51094;53.864;27.676;2023-04-03T03:46:32;99267.72;;;-0.23;68.07
64679;BME280;51094;53.864;27.676;2023-04-03T03:48:59;99364.47;;;0.23;67.70
64679;BME280;51094;53.864;27.676;2023-04-03T03:51:26;99204.53;;;-0.82;67.98
64679;BME280;51094;53.864;27.676;2023-04-03T03:53:52;99391.66;;;0.25;67.96
64679;BME280;51094;53.864;27.676;2023-04-03T03:56:19;99390.88;;;0.23;68.37
64679;BME280;51094;53.864;27.676;2023-04-03T03:58:47;99393.47;;;0.22;68.25
64679;BME280;51094;53.864;27.676;2023-04-03T04:01:14;99318.78;;;-0.22;68.45
64679;BME280;51094;53.864;27.676;2023-04-03T04:03:45;99302.84;;;-0.31;68.23
64679;BME280;51094;53.864;27.676;2023-04-03T04:06:17;99264.13;;;-0.49;68.23
64679;BME280;51094;53.864;27.676;2023-04-03T04:08:44;99296.91;;;-0.32;67.73
64679;BME280;51094;53.864;27.676;2023-04-03T04:11:12;99265.91;;;-0.51;68.27
64679;BME280;51094;53.864;27.676;2023-04-03T04:13:40;99372.28;;;0.17;68.44
64679;BME280;51094;53.864;27.676;2023-04-03T04:16:10;99293.34;;;-0.26;68.48
64679;BME280;51094;53.864;27.676;2023-04-03T04:18:37;99404.22;;;0.35;68.47
64679;BME280;51094;53.864;27.676;2023-04-03T04:21:04;99312.75;;;-0.19;68.00
64679;BME280;51094;53.864;27.676;2023-04-03T04:23:31;99236.47;;;-0.65;67.53
64679;BME280;51094;53.864;27.676;2023-04-03T04:25:59;99395.69;;;0.34;67.79
64679;BME280;51094;53.864;27.676;2023-04-03T04:28:29;99400.47;;;0.46;68.00
64679;BME280;51094;53.864;27.676;2023-04-03T04:30:58;99304.59;;;-0.01;67.42
64679;BME280;51094;53.864;27.676;2023-04-03T04:33:26;99353.03;;;0.04;67.67
64679;BME280;51094;53.864;27.676;2023-04-03T04:35:54;99226.50;;;-0.75;67.49
64679;BME280;51094;53.864;27.676;2023-04-03T04:38:21;99395.81;;;0.29;67.99
64679;BME280;51094;53.864;27.676;2023-04-03T04:40:50;99351.88;;;0.15;67.39
64679;BME280;51094;53.864;27.676;2023-04-03T04:43:17;99368.84;;;0.18;67.79
64679;BME280;51094;53.864;27.676;2023-04-03T04:45:46;99290.16;;;-0.35;67.54
64679;BME280;51094;53.864;27.676;2023-04-03T04:48:17;99240.63;;;-0.61;67.94
64679;BME280;51094;53.864;27.676;2023-04-03T04:50:43;99293.91;;;-0.15;68.34
64679;BME280;51094;53.864;27.676;2023-04-03T04:53:11;99410.63;;;0.49;67.16
64679;BME280;51094;53.864;27.676;2023-04-03T04:55:37;99398.91;;;0.42;67.75
64679;BME280;51094;53.864;27.676;2023-04-03T04:58:05;99332.63;;;0.02;68.44
64679;BME280;51094;53.864;27.676;2023-04-03T05:00:33;99376.38;;;0.53;67.98
64679;BME280;51094;53.864;27.676;2023-04-03T05:03:00;99351.75;;;0.49;66.80
64679;BME280;51094;53.864;27.676;2023-04-03T05:05:27;99390.69;;;0.60;66.55
64679;BME280;51094;53.864;27.676;2023-04-03T05:07:55;99399.53;;;0.49;66.93
64679;BME280;51094;53.864;27.676;2023-04-03T05:10:21;99324.81;;;0.07;67.13
64679;BME280;51094;53.864;27.676;2023-04-03T05:12:48;99394.03;;;0.62;67.51
64679;BME280;51094;53.864;27.676;2023-04-03T05:15:15;99353.44;;;0.50;67.57
64679;BME280;51094;53.864;27.676;2023-04-03T05:17:43;99404.56;;;0.83;67.11
64679;BME280;51094;53.864;27.676;2023-04-03T05:20:12;99405.63;;;0.76;66.89
64679;BME280;51094;53.864;27.676;2023-04-03T05:22:41;99400.88;;;0.62;66.48
64679;BME280;51094;53.864;27.676;2023-04-03T05:25:09;99387.66;;;0.46;67.20
64679;BME280;51094;53.864;27.676;2023-04-03T05:27:37;99370.00;;;0.39;67.03
64679;BME280;51094;53.864;27.676;2023-04-03T05:30:04;99329.38;;;0.28;67.19
64679;BME280;51094;53.864;27.676;2023-04-03T05:32:33;99400.50;;;0.76;66.60
64679;BME280;51094;53.864;27.676;2023-04-03T05:35:14;99337.38;;;0.45;67.26
64679;BME280;51094;53.864;27.676;2023-04-03T05:37:42;99337.91;;;0.56;66.73
64679;BME280;51094;53.864;27.676;2023-04-03T05:40:10;99400.59;;;1.00;66.79
64679;BME280;51094;53.864;27.676;2023-04-03T05:42:40;99400.28;;;1.11;67.18
64679;BME280;51094;53.864;27.676;2023-04-03T05:45:07;99397.22;;;1.28;66.36
64679;BME280;51094;53.864;27.676;2023-04-03T05:47:34;99307.56;;;0.44;66.10
64679;BME280;51094;53.864;27.676;2023-04-03T05:50:03;99406.66;;;0.98;65.33
64679;BME280;51094;53.864;27.676;2023-04-03T05:52:33;99379.31;;;0.71;66.37
64679;BME280;51094;53.864;27.676;2023-04-03T05:55:02;99343.00;;;0.58;66.15
64679;BME280;51094;53.864;27.676;2023-04-03T05:57:32;99408.34;;;0.99;66.09
64679;BME280;51094;53.864;27.676;2023-04-03T05:59:59;99373.13;;;0.78;65.76
64679;BME280;51094;53.864;27.676;2023-04-03T06:02:26;99412.88;;;0.89;65.62
64679;BME280;51094;53.864;27.676;2023-04-03T06:04:53;99207.38;;;-0.29;65.69
64679;BME280;51094;53.864;27.676;2023-04-03T06:07:23;99408.50;;;0.93;65.95
64679;BME280;51094;53.864;27.676;2023-04-03T06:09:50;99409.53;;;1.17;66.99
64679;BME280;51094;53.864;27.676;2023-04-03T06:12:20;99411.06;;;1.22;65.36
64679;BME280;51094;53.864;27.676;2023-04-03T06:14:48;99415.56;;;1.14;65.91
64679;BME280;51094;53.864;27.676;2023-04-03T06:17:15;99416.28;;;1.19;65.96
64679;BME280;51094;53.864;27.676;2023-04-03T06:19:44;99196.16;;;-0.23;64.94
64679;BME280;51094;53.864;27.676;2023-04-03T06:22:13;99416.72;;;1.04;65.96
64679;BME280;51094;53.864;27.676;2023-04-03T06:24:40;99427.72;;;1.08;65.22
64679;BME280;51094;53.864;27.676;2023-04-03T06:27:07;99367.88;;;0.53;65.83
64679;BME280;51094;53.864;27.676;2023-04-03T06:29:34;99425.47;;;0.97;65.77
64679;BME280;51094;53.864;27.676;2023-04-03T06:32:00;99343.13;;;0.53;65.29
64679;BME280;51094;53.864;27.676;2023-04-03T06:34:27;99435.34;;;1.09;65.54
64679;BME280;51094;53.864;27.676;2023-04-03T06:36:54;99398.13;;;0.97;65.69
64679;BME280;51094;53.864;27.676;2023-04-03T06:39:21;99442.38;;;1.30;65.17
64679;BME280;51094;53.864;27.676;2023-04-03T06:41:51;99424.56;;;1.27;64.99
64679;BME280;51094;53.864;27.676;2023-04-03T06:44:26;99435.34;;;1.09;63.72
64679;BME280;51094;53.864;27.676;2023-04-03T06:46:53;99434.03;;;0.96;64.83
64679;BME280;51094;53.864;27.676;2023-04-03T06:49:20;99419.59;;;0.93;65.61
64679;BME280;51094;53.864;27.676;2023-04-03T06:51:48;99442.81;;;1.17;64.80
64679;BME280;51094;53.864;27.676;2023-04-03T06:54:15;99404.88;;;1.00;64.56
64679;BME280;51094;53.864;27.676;2023-04-03T06:56:41;99446.84;;;1.25;64.58
64679;BME280;51094;53.864;27.676;2023-04-03T06:59:09;99392.31;;;0.92;64.29
64679;BME280;51094;53.864;27.676;2023-04-03T07:01:36;99454.19;;;1.36;64.67
64679;BME280;51094;53.864;27.676;2023-04-03T07:04:03;99374.44;;;0.91;64.19
64679;BME280;51094;53.864;27.676;2023-04-03T07:06:30;99461.44;;;1.50;64.35
64679;BME280;51094;53.864;27.676;2023-04-03T07:08:58;99475.22;;;1.74;63.98
64679;BME280;51094;53.864;27.676;2023-04-03T07:11:25;99460.28;;;1.86;64.28
64679;BME280;51094;53.864;27.676;2023-04-03T07:13:52;99470.94;;;2.00;64.04
64679;BME280;51094;53.864;27.676;2023-04-03T07:16:20;99399.84;;;1.53;63.66
64679;BME280;51094;53.864;27.676;2023-04-03T07:18:47;99467.09;;;2.14;63.23
64679;BME280;51094;53.864;27.676;2023-04-03T07:21:13;99411.06;;;1.75;62.60
64679;BME280;51094;53.864;27.676;2023-04-03T07:23:40;99403.75;;;1.64;62.18
64679;BME280;51094;53.864;27.676;2023-04-03T07:26:07;99384.97;;;1.64;62.04
64679;BME280;51094;53.864;27.676;2023-04-03T07:28:34;99379.81;;;1.65;61.54
64679;BME280;51094;53.864;27.676;2023-04-03T07:31:05;99475.84;;;2.33;62.43
64679;BME280;51094;53.864;27.676;2023-04-03T07:33:34;99480.09;;;2.34;61.97
64679;BME280;51094;53.864;27.676;2023-04-03T07:36:01;99380.13;;;1.81;60.77
64679;BME280;51094;53.864;27.676;2023-04-03T07:38:28;99481.03;;;2.56;61.49
64679;BME280;51094;53.864;27.676;2023-04-03T07:40:55;99501.63;;;2.55;60.92
64679;BME280;51094;53.864;27.676;2023-04-03T07:43:22;99454.22;;;2.40;60.65
64679;BME280;51094;53.864;27.676;2023-04-03T07:45:51;99479.25;;;2.58;60.57
64679;BME280;51094;53.864;27.676;2023-04-03T07:48:20;99288.66;;;1.57;60.81
64679;BME280;51094;53.864;27.676;2023-04-03T07:50:47;99475.19;;;2.76;59.92
64679;BME280;51094;53.864;27.676;2023-04-03T07:53:15;99459.16;;;2.46;59.73
64679;BME280;51094;53.864;27.676;2023-04-03T07:55:42;99430.22;;;2.41;60.45
64679;BME280;51094;53.864;27.676;2023-04-03T07:58:14;99397.56;;;2.21;58.83
64679;BME280;51094;53.864;27.676;2023-04-03T08:00:42;99481.13;;;2.78;59.71
64679;BME280;51094;53.864;27.676;2023-04-03T08:03:10;99488.66;;;2.83;59.32
64679;BME280;51094;53.864;27.676;2023-04-03T08:05:43;99427.25;;;2.53;59.29
64679;BME280;51094;53.864;27.676;2023-04-03T08:08:15;99495.84;;;2.73;59.40
64679;BME280;51094;53.864;27.676;2023-04-03T08:10:49;99477.91;;;2.72;59.41
64679;BME280;51094;53.864;27.676;2023-04-03T08:13:17;99476.34;;;2.67;57.87
64679;BME280;51094;53.864;27.676;2023-04-03T08:15:43;99404.16;;;2.04;59.11
64679;BME280;51094;53.864;27.676;2023-04-03T08:18:11;99498.97;;;2.81;58.78
64679;BME280;51094;53.864;27.676;2023-04-03T08:20:38;99499.59;;;2.88;58.31
64679;BME280;51094;53.864;27.676;2023-04-03T08:23:07;99505.53;;;2.90;57.85
64679;BME280;51094;53.864;27.676;2023-04-03T08:25:38;99505.44;;;2.93;57.17
64679;BME280;51094;53.864;27.676;2023-04-03T08:28:05;99493.66;;;2.62;57.46
64679;BME280;51094;53.864;27.676;2023-04-03T08:30:33;99491.44;;;2.77;57.92
64679;BME280;51094;53.864;27.676;2023-04-03T08:33:01;99490.13;;;2.90;56.21
64679;BME280;51094;53.864;27.676;2023-04-03T08:35:28;99533.78;;;3.13;57.12
64679;BME280;51094;53.864;27.676;2023-04-03T08:37:56;99443.00;;;2.91;56.94
64679;BME280;51094;53.864;27.676;2023-04-03T08:40:23;99482.72;;;3.04;56.95
64679;BME280;51094;53.864;27.676;2023-04-03T08:43:35;99527.34;;;3.48;55.85
64679;BME280;51094;53.864;27.676;2023-04-03T08:46:05;99504.63;;;3.38;56.34
64679;BME280;51094;53.864;27.676;2023-04-03T08:48:36;99484.06;;;3.38;56.50
64679;BME280;51094;53.864;27.676;2023-04-03T08:51:14;99532.53;;;3.70;56.30
64679;BME280;51094;53.864;27.676;2023-04-03T08:54:28;99571.88;;;3.72;55.82
64679;BME280;51094;53.864;27.676;2023-04-03T08:56:35;99537.56;;;3.73;54.61
64679;BME280;51094;53.864;27.676;2023-04-03T08:59:12;99534.69;;;3.81;55.90
64679;BME280;51094;53.864;27.676;2023-04-03T09:01:41;99489.81;;;3.88;55.39
64679;BME280;51094;53.864;27.676;2023-04-03T09:04:12;99532.28;;;4.40;53.89
64679;BME280;51094;53.864;27.676;2023-04-03T09:06:43;99525.81;;;4.31;54.62
64679;BME280;51094;53.864;27.676;2023-04-03T09:09:29;99515.09;;;4.41;53.49
64679;BME280;51094;53.864;27.676;2023-04-03T09:17:41;99530.84;;;4.75;53.15
64679;BME280;51094;53.864;27.676;2023-04-03T09:22:57;99551.53;;;4.92;51.47
64679;BME280;51094;53.864;27.676;2023-04-03T09:25:34;99552.00;;;4.82;52.39
64679;BME280;51094;53.864;27.676;2023-04-03T09:28:04;99531.75;;;4.93;52.94
64679;BME280;51094;53.864;27.676;2023-04-03T09:30:36;99546.25;;;5.16;51.49
64679;BME280;51094;53.864;27.676;2023-04-03T09:33:04;99492.44;;;4.69;51.86
64679;BME280;51094;53.864;27.676;2023-04-03T09:35:35;99562.88;;;4.88;52.28
64679;BME280;51094;53.864;27.676;2023-04-03T09:38:17;99440.94;;;3.88;51.40
64679;BME280;51094;53.864;27.676;2023-04-03T09:40:51;99562.81;;;4.49;52.05
64679;BME280;51094;53.864;27.676;2023-04-03T09:43:31;99555.38;;;4.63;52.16
64679;BME280;51094;53.864;27.676;2023-04-03T09:46:34;99564.22;;;4.77;51.78
64679;BME280;51094;53.864;27.676;2023-04-03T09:49:04;99553.59;;;5.05;52.44
64679;BME280;51094;53.864;27.676;2023-04-03T09:51:35;99543.63;;;4.97;51.35
64679;BME280;51094;53.864;27.676;2023-04-03T09:54:33;99564.50;;;4.71;51.14
64679;BME280;51094;53.864;27.676;2023-04-03T09:57:12;99587.78;;;4.47;51.75
64679;BME280;51094;53.864;27.676;2023-04-03T10:00:10;99555.50;;;4.39;52.05
64679;BME280;51094;53.864;27.676;2023-04-03T10:02:50;99402.84;;;3.33;51.75
64679;BME280;51094;53.864;27.676;2023-04-03T10:08:21;99552.09;;;4.38;52.35
64679;BME280;51094;53.864;27.676;2023-04-03T10:11:15;99582.91;;;4.19;52.96
64679;BME280;51094;53.864;27.676;2023-04-03T10:13:51;99571.66;;;4.22;53.04
64679;BME280;51094;53.864;27.676;2023-04-03T10:16:22;99468.22;;;3.70;53.25
64679;BME280;51094;53.864;27.676;2023-04-03T10:21:44;99577.38;;;4.50;52.15
64679;BME280;51094;53.864;27.676;2023-04-03T10:26:57;99580.41;;;4.60;51.99
64679;BME280;51094;53.864;27.676;2023-04-03T10:32:24;99582.38;;;4.33;51.99
64679;BME280;51094;53.864;27.676;2023-04-03T10:35:05;99555.13;;;4.27;52.67
64679;BME280;51094;53.864;27.676;2023-04-03T10:37:50;99587.28;;;4.59;52.32
64679;BME280;51094;53.864;27.676;2023-04-03T10:40:34;99573.22;;;4.04;51.78
64679;BME280;51094;53.864;27.676;2023-04-03T10:43:09;99529.38;;;3.85;52.08
64679;BME280;51094;53.864;27.676;2023-04-03T10:45:59;99495.81;;;3.66;51.83
64679;BME280;51094;53.864;27.676;2023-04-03T10:48:55;99588.66;;;4.26;51.96
64679;BME280;51094;53.864;27.676;2023-04-03T10:51:35;99487.19;;;3.89;52.20
64679;BME280;51094;53.864;27.676;2023-04-03T10:54:24;99216.56;;;2.36;51.15
64679;BME280;51094;53.864;27.676;2023-04-03T10:56:56;99561.06;;;4.50;51.93
64679;BME280;51094;53.864;27.676;2023-04-03T10:59:48;99588.72;;;4.87;51.73
64679;BME280;51094;53.864;27.676;2023-04-03T11:04:50;99607.53;;;4.47;50.35
64679;BME280;51094;53.864;27.676;2023-04-03T11:07:22;99570.34;;;4.12;51.45
64679;BME280;51094;53.864;27.676;2023-04-03T11:09:56;99545.22;;;3.75;50.71
64679;BME280;51094;53.864;27.676;2023-04-03T11:12:48;99583.09;;;4.15;50.74
64679;BME280;51094;53.864;27.676;2023-04-03T11:15:16;99581.25;;;4.18;51.30
64679;BME280;51094;53.864;27.676;2023-04-03T11:17:52;99582.50;;;4.30;51.29
64679;BME280;51094;53.864;27.676;2023-04-03T11:20:27;99549.94;;;4.07;50.99
64679;BME280;51094;53.864;27.676;2023-04-03T11:23:18;99512.66;;;3.52;49.93
64679;BME280;51094;53.864;27.676;2023-04-03T11:25:51;99581.34;;;3.93;50.89
64679;BME280;51094;53.864;27.676;2023-04-03T11:28:18;99581.88;;;4.01;51.14
64679;BME280;51094;53.864;27.676;2023-04-03T11:30:51;99576.81;;;3.78;50.47
64679;BME280;51094;53.864;27.676;2023-04-03T11:33:36;99585.41;;;3.77;51.63
64679;BME280;51094;53.864;27.676;2023-04-03T11:36:26;99579.53;;;3.95;51.69
64679;BME280;51094;53.864;27.676;2023-04-03T11:39:10;99522.66;;;3.81;52.01
64679;BME280;51094;53.864;27.676;2023-04-03T11:41:40;99553.22;;;4.11;51.55
64679;BME280;51094;53.864;27.676;2023-04-03T11:44:31;99575.81;;;4.46;51.89
64679;BME280;51094;53.864;27.676;2023-04-03T11:47:00;99562.94;;;4.46;51.17
64679;BME280;51094;53.864;27.676;2023-04-03T12:16:27;99583.03;;;3.94;51.81
64679;BME280;51094;53.864;27.676;2023-04-03T12:26:50;99500.44;;;3.57;50.41
64679;BME280;51094;53.864;27.676;2023-04-03T12:29:29;99576.97;;;3.95;50.54
64679;BME280;51094;53.864;27.676;2023-04-03T12:45:41;99550.69;;;3.89;49.80
64679;BME280;51094;53.864;27.676;2023-04-03T12:48:16;99579.94;;;3.86;50.14
64679;BME280;51094;53.864;27.676;2023-04-03T12:50:46;99584.28;;;3.84;50.44
64679;BME280;51094;53.864;27.676;2023-04-03T12:53:18;99582.50;;;3.86;51.05
64679;BME280;51094;53.864;27.676;2023-04-03T12:55:45;99589.31;;;3.87;50.29
64679;BME280;51094;53.864;27.676;2023-04-03T12:58:22;99581.44;;;3.68;49.32
64679;BME280;51094;53.864;27.676;2023-04-03T13:01:00;99441.19;;;2.70;50.36
64679;BME280;51094;53.864;27.676;2023-04-03T13:03:28;99550.47;;;3.48;50.07
64679;BME280;51094;53.864;27.676;2023-04-03T13:06:02;99583.28;;;3.65;50.39
64679;BME280;51094;53.864;27.676;2023-04-03T13:08:30;99559.19;;;3.46;50.60
64679;BME280;51094;53.864;27.676;2023-04-03T13:11:10;99574.47;;;3.72;50.85
64679;BME280;51094;53.864;27.676;2023-04-03T13:13:37;99586.53;;;3.92;51.16
64679;BME280;51094;53.864;27.676;2023-04-03T13:16:10;99559.91;;;3.93;50.59
64679;BME280;51094;53.864;27.676;2023-04-03T13:18:37;99585.66;;;4.15;49.64
64679;BME280;51094;53.864;27.676;2023-04-03T13:21:07;99598.41;;;3.96;49.26
64679;BME280;51094;53.864;27.676;2023-04-03T13:23:40;99596.88;;;3.68;49.63
64679;BME280;51094;53.864;27.676;2023-04-03T13:26:07;99492.13;;;3.05;50.17
64679;BME280;51094;53.864;27.676;2023-04-03T13:28:35;99594.69;;;3.58;50.52
64679;BME280;51094;53.864;27.676;2023-04-03T13:31:07;99587.91;;;3.33;50.25
64679;BME280;51094;53.864;27.676;2023-04-03T13:33:37;99578.03;;;3.21;51.13
64679;BME280;51094;53.864;27.676;2023-04-03T13:36:16;99573.81;;;3.20;50.66
64679;BME280;51094;53.864;27.676;2023-04-03T13:38:44;99596.25;;;3.15;51.08
64679;BME280;51094;53.864;27.676;2023-04-03T13:41:38;99605.16;;;3.30;51.54
64679;BME280;51094;53.864;27.676;2023-04-03T13:47:15;99588.63;;;3.37;50.34
64679;BME280;51094;53.864;27.676;2023-04-03T13:50:00;99589.53;;;3.11;50.92
64679;BME280;51094;53.864;27.676;2023-04-03T13:52:38;99625.84;;;3.02;51.23
64679;BME280;51094;53.864;27.676;2023-04-03T13:55:28;99586.63;;;2.97;50.95
64679;BME280;51094;53.864;27.676;2023-04-03T14:02:56;99409.13;;;2.33;51.90
64679;BME280;51094;53.864;27.676;2023-04-03T14:05:24;99596.97;;;3.44;50.92
64679;BME280;51094;53.864;27.676;2023-04-03T14:07:54;99544.19;;;3.10;50.72
64679;BME280;51094;53.864;27.676;2023-04-03T14:10:21;99598.06;;;3.37;50.65
64679;BME280;51094;53.864;27.676;2023-04-03T14:12:48;99597.19;;;3.38;51.16
64679;BME280;51094;53.864;27.676;2023-04-03T14:15:24;99604.94;;;3.36;51.28
64679;BME280;51094;53.864;27.676;2023-04-03T14:17:53;99537.88;;;2.95;50.22
64679;BME280;51094;53.864;27.676;2023-04-03T14:20:22;99601.97;;;3.23;50.96
64679;BME280;51094;53.864;27.676;2023-04-03T14:22:49;99487.88;;;2.31;51.29
64679;BME280;51094;53.864;27.676;2023-04-03T14:25:18;99613.19;;;3.21;51.29
64679;BME280;51094;53.864;27.676;2023-04-03T14:27:48;99603.97;;;3.15;50.07
64679;BME280;51094;53.864;27.676;2023-04-03T14:30:30;99569.53;;;2.71;50.37
64679;BME280;51094;53.864;27.676;2023-04-03T14:32:58;99601.94;;;3.00;50.82
64679;BME280;51094;53.864;27.676;2023-04-03T14:35:25;99532.09;;;2.39;50.53
64679;BME280;51094;53.864;27.676;2023-04-03T14:37:53;99522.44;;;2.21;50.28
64679;BME280;51094;53.864;27.676;2023-04-03T14:40:24;99617.66;;;2.64;50.80
64679;BME280;51094;53.864;27.676;2023-04-03T14:42:52;99616.38;;;2.78;51.48
64679;BME280;51094;53.864;27.676;2023-04-03T14:45:22;99569.97;;;2.59;51.13